Medical Lake, WA (99022)

7:33 PM PDT on July 26, 2016 (GMT -0700)
In town | | Change Station

Elev 2421 ft 47.58 °N, 117.69 °W | Updated 8 minutes ago

Light Rain
Light Rain
78.3 °F
Feels Like 80 °F
N
3.7
Wind Variable Wind from NNE

Today
High -- | Low -- °F
--% Chance of Precip.
Yesterday
High -- | Low -- °F
Precip. -- in
Pressure 29.98 in
Visibility 10.0 miles
Clouds Mostly Cloudy 10000 ft
Mostly Cloudy 11000 ft
Heat Index 80 °F
Dew Point 59 °F
Humidity 52%
Rainfall 0.00 in
Snow Depth Not available.
5:21 AM 8:32 PM
Waning Gibbous, 48% visible
SPECI KSKA 270222Z AUTO 05011KT 10SM -RA BKN100 BKN110 29/10 A2998 RMK AO2 RAB22
Pressure 29.98 in
Visibility 10.0 miles
Clouds Mostly Cloudy 10000 ft
Mostly Cloudy 11000 ft
Heat Index 80 °F
Dew Point 59 °F
Humidity 52%
Rainfall 0.00 in
Snow Depth Not available.
5:21 AM 8:32 PM
Waning Gibbous, 48% visible
SPECI KSKA 270222Z AUTO 05011KT 10SM -RA BKN100 BKN110 29/10 A2998 RMK AO2 RAB22

10-Day Weather Forecast

Almanac

Astronomy

Jul. 26, 2016 Rise Set
Actual Time
Civil Twilight
Nautical Twilight
Astronomical Twilight
Moon
Length of Visible Light
Length of Day
Tomorrow will be .
, % of the Moon is Illuminated

Today's Extremes

State Highs State Lows

Community

WunderPhotos

Upload Photos

1,927,779 photos uploaded!

WunderBlog® & News

Nearby

Air Quality

  Air Quality AQ Index Pollutant
Not available.

Snow Depth

Station Depth Elevation

Earthquake Activity

City Distance Mag. Time & Date
Minimum magnitude displayed is 2.5.

Coastal Water Temperatures

Place Temperature

Stations

Nearby Weather Stations

Station Location Temp. Windchill Dew Point Humidity Wind Precip. Elev Updated Type
                   

Watches & Warnings

There are currently no watches in effect.